Archival Weather

Chicago O'Hare International

Chicago, Illinois (KORD)

Report from: Tuesday, December 6, 2022 8:51 PM CST
Current time: Saturday, February 4, 2023 9:47 PM CST

Current weather
Weather history
Weather forecast

Temperature3.9°C (39.0°F)
Dew point1.1°C (34.0°F)
Winds Calm
Visibility7 mi. (11.3 km)
Clouds Few clouds 1,500 ft. (457 m)
Scattered clouds 2,100 ft. (640 m)
Ceiling: Broken clouds 8,000 ft. (2,438 m)
Altimeter30.05 in.Hg (1018 mB)
Relative humidity82 %
Density altitude-1,394 ft. (-425 m)
Sea-level pressure101.8 kPa (1018 mB, 30.06 in.Hg)
Remarks Automated weather observing station with precipitation discriminator
Pressure rising more quickly
Flight conditions Visual Meteorological Conditions
Raw dataKORD 070251Z 00000KT 7SM FEW015 SCT021 BKN080 04/01 A3005 RMK AO2 SLP180 T00390011 53010
An unhandled exception has occurred. See browser dev tools for details. Reload 🗙